Weather at Cape Cod Coast Guard Air Station

Public forecast

Using degrees Fahrenheit for public forecast. Weather courtesy of forecast.io.

Current aviation weather report (METAR) for Cape Cod Coast Guard Air Station

Retrieved 2020/10/28 18:45 UTC (23 minutes ago):

KFMH 281845Z 13008KT 2SM -DZ OVC005 09/09 A2995

Aviation forecast (TAF) for Cape Cod Coast Guard Air Station

Retrieved 2020/10/28 18:27 UTC (41 minutes ago):

TAF KFMH 281724Z 2818/2918 15007KT 2SM -RA BR OVC005 FM282100 27007KT 5SM BR OVC008 FM282300 28006KT P6SM SCT010 FM291000 00000KT P6SM OVC100 FM291500 35003KT P6SM VCSH OVC050 FM291700 00000KT 5SM -RA BR OVC025